Time;durP1;ratioP1;P1;durP2;ratioP2;P2;SDS_P1;SDS_P2;PMS_P1;PMS_P2;Temp;Humidity;BMP_temperature;BMP_pressure;BME280_temperature;BME280_humidity;BME280_pressure;Samples;Min_cycle;Max_cycle;Signal;HPM_P1;HPM_P2
2024/03/03 00:00:59;;;;;;;;;;;;;;;19.59;48.83;100109.31;2068159;28;6102;-66
2024/03/03 00:02:01;;;;;;;;;;;;;;;19.59;48.85;100115.06;2067941;28;2007;-66
2024/03/03 00:03:02;;;;;;;;;;;;;;;19.59;48.74;100112.19;2068049;28;2411;-67
2024/03/03 00:04:03;;;;;;;;;;;;;;;19.59;48.93;100105.72;2066849;28;2689;-66
2024/03/03 00:05:05;;;;;;;;;;;;;;;19.59;48.81;100108.59;2067693;28;2115;-67
2024/03/03 00:06:06;;;;;;;;;;;;;;;19.58;48.82;100110.69;2067849;28;1976;-67
2024/03/03 00:07:09;;;;;;;;;;;;;;;19.57;48.76;100106.38;2067166;28;2372;-67
2024/03/03 00:08:11;;;;;;;;;;;;;;;19.58;48.89;100104.97;2067689;28;2510;-66
2024/03/03 00:09:12;;;;;;;;;;;;;;;19.57;48.88;100099.91;2068145;28;2122;-67
2024/03/03 00:10:13;;;;;;;;;;;;;;;19.57;48.82;100106.38;2068771;28;2008;-67
2024/03/03 00:11:15;;;;;;;;;;;;;;;19.57;48.85;100106.38;2066688;28;1605;-66
2024/03/03 00:12:16;;;;;;;;;;;;;;;19.57;48.93;100100.63;2067647;28;2553;-67
2024/03/03 00:13:18;;;;;;;;;;;;;;;19.57;48.84;100105.63;2066998;28;2378;-67
2024/03/03 00:14:21;;;;;;;;;;;;;;;19.56;48.83;100104.91;2070231;28;2074;-67
2024/03/03 00:15:22;;;;;;;;;;;;;;;19.56;48.83;100098.41;2069506;28;2103;-67
2024/03/03 00:16:23;;;;;;;;;;;;;;;19.55;48.70;100103.41;2068522;28;1616;-67
2024/03/03 00:17:25;;;;;;;;;;;;;;;19.56;48.88;100102.03;2066060;28;2296;-66
2024/03/03 00:18:26;;;;;;;;;;;;;;;19.55;48.85;100102.69;2067542;28;2530;-67
2024/03/03 00:19:28;;;;;;;;;;;;;;;19.55;48.86;100097.69;2068902;28;2509;-66
2024/03/03 00:20:29;;;;;;;;;;;;;;;19.55;48.82;100096.94;2068706;28;1707;-66
2024/03/03 00:21:30;;;;;;;;;;;;;;;19.55;48.70;100100.53;2065879;28;2127;-66
2024/03/03 00:22:32;;;;;;;;;;;;;;;19.55;48.72;100096.94;2068727;28;1699;-67
2024/03/03 00:23:33;;;;;;;;;;;;;;;19.55;48.87;100097.69;2067487;28;1632;-67
2024/03/03 00:24:34;;;;;;;;;;;;;;;19.54;48.67;100096.22;2077417;28;2051;-66
2024/03/03 00:25:36;;;;;;;;;;;;;;;19.55;48.71;100091.19;2073941;28;2510;-67
2024/03/03 00:26:37;;;;;;;;;;;;;;;19.54;48.72;100090.47;2067992;28;2448;-67
2024/03/03 00:27:38;;;;;;;;;;;;;;;19.54;48.70;100090.47;2069557;28;2514;-66
2024/03/03 00:28:40;;;;;;;;;;;;;;;19.54;48.74;100095.44;2066304;28;2440;-67
2024/03/03 00:29:42;;;;;;;;;;;;;;;19.53;48.75;100094.72;2066495;28;2138;-67
2024/03/03 00:30:43;;;;;;;;;;;;;;;19.53;48.83;100094.72;2067456;28;6292;-66
2024/03/03 00:31:45;;;;;;;;;;;;;;;19.54;48.70;100089.72;2068808;28;1593;-68
2024/03/03 00:32:46;;;;;;;;;;;;;;;19.53;48.83;100094.00;2069147;28;1640;-67
2024/03/03 00:33:48;;;;;;;;;;;;;;;19.52;48.78;100093.25;2067890;28;2096;-66
2024/03/03 00:34:49;;;;;;;;;;;;;;;19.52;48.81;100095.41;2067272;28;2491;-66
2024/03/03 00:35:50;;;;;;;;;;;;;;;19.52;48.78;100090.38;2067816;28;2306;-67
2024/03/03 00:36:52;;;;;;;;;;;;;;;19.52;48.78;100093.25;2068675;28;1658;-66
2024/03/03 00:37:53;;;;;;;;;;;;;;;19.52;48.81;100083.91;2069129;28;1612;-67
2024/03/03 00:38:55;;;;;;;;;;;;;;;19.51;48.72;100086.03;2068078;28;2105;-67
2024/03/03 00:39:56;;;;;;;;;;;;;;;19.51;48.69;100086.03;2070064;28;2511;-67
2024/03/03 00:40:57;;;;;;;;;;;;;;;19.52;48.75;100093.25;2067389;28;2455;-66
2024/03/03 00:41:59;;;;;;;;;;;;;;;19.52;48.74;100087.53;2067918;28;1917;-67
2024/03/03 00:43:00;;;;;;;;;;;;;;;19.51;48.75;100088.91;2068690;28;2190;-67
2024/03/03 00:44:02;;;;;;;;;;;;;;;19.50;48.70;100084.56;2068281;28;1615;-66
2024/03/03 00:45:03;;;;;;;;;;;;;;;19.51;48.73;100091.78;2066769;28;2644;-67
2024/03/03 00:46:05;;;;;;;;;;;;;;;19.50;48.72;100089.59;2066830;28;2518;-68
2024/03/03 00:47:06;;;;;;;;;;;;;;;19.50;48.77;100090.31;2066556;28;1846;-66
2024/03/03 00:48:08;;;;;;;;;;;;;;;19.50;48.80;100084.56;2068760;28;1568;-66
2024/03/03 00:49:10;;;;;;;;;;;;;;;19.49;48.77;100083.09;2068599;28;2128;-67
2024/03/03 00:50:11;;;;;;;;;;;;;;;19.50;48.67;100083.84;2068827;28;1585;-66
2024/03/03 00:51:12;;;;;;;;;;;;;;;19.50;48.91;100090.31;2067559;28;1619;-67
2024/03/03 00:52:14;;;;;;;;;;;;;;;19.50;48.81;100083.84;2065641;28;2364;-67
2024/03/03 00:53:15;;;;;;;;;;;;;;;19.49;48.74;100083.09;2068514;28;1778;-66
2024/03/03 00:54:17;;;;;;;;;;;;;;;19.50;48.81;100083.84;2068506;28;1639;-67
2024/03/03 00:55:18;;;;;;;;;;;;;;;19.49;48.71;100077.34;2068972;28;2428;-67
2024/03/03 00:56:20;;;;;;;;;;;;;;;19.49;48.75;100088.81;2068728;28;2345;-67
2024/03/03 00:57:21;;;;;;;;;;;;;;;19.48;48.82;100084.50;2067242;28;1996;-66
2024/03/03 00:58:23;;;;;;;;;;;;;;;19.48;48.78;100075.88;2066933;28;2166;-67
2024/03/03 00:59:24;;;;;;;;;;;;;;;19.48;48.81;100078.75;2068140;28;1633;-67
2024/03/03 01:00:26;;;;;;;;;;;;;;;19.49;48.75;100082.34;2065316;28;6263;-66
2024/03/03 01:01:27;;;;;;;;;;;;;;;19.48;48.78;100084.50;2068059;28;1725;-66
2024/03/03 01:02:28;;;;;;;;;;;;;;;19.48;48.81;100072.28;2066431;28;2483;-67
2024/03/03 01:03:31;;;;;;;;;;;;;;;19.47;48.77;100074.41;2067118;28;2657;-66
2024/03/03 01:04:33;;;;;;;;;;;;;;;19.48;48.80;100075.16;2067363;28;1723;-67
2024/03/03 01:05:35;;;;;;;;;;;;;;;19.48;48.70;100075.16;2069660;28;1578;-66
2024/03/03 01:06:36;;;;;;;;;;;;;;;19.47;48.78;100077.28;2067269;28;2096;-67
2024/03/03 01:07:40;;;;;;;;;;;;;;;19.46;48.77;100067.19;2065822;28;1885;-67
2024/03/03 01:08:43;;;;;;;;;;;;;;;19.48;48.66;100069.41;2067630;28;2500;-67
2024/03/03 01:09:45;;;;;;;;;;;;;;;19.46;48.72;100065.03;2067259;28;1672;-66
2024/03/03 01:10:46;;;;;;;;;;;;;;;19.46;48.80;100067.19;2069283;28;2471;-67
2024/03/03 01:11:51;;;;;;;;;;;;;;;19.47;48.72;100074.41;2066459;28;2277;-67
2024/03/03 01:12:53;;;;;;;;;;;;;;;19.47;48.75;100074.41;2067704;28;1620;-66
2024/03/03 01:13:54;;;;;;;;;;;;;;;19.45;48.75;100059.97;2068671;28;1704;-66
2024/03/03 01:14:56;;;;;;;;;;;;;;;19.45;48.74;100066.47;2067023;28;2121;-67
2024/03/03 01:15:57;;;;;;;;;;;;;;;19.46;48.74;100067.19;2068114;28;2585;-67
2024/03/03 01:16:58;;;;;;;;;;;;;;;19.46;48.72;100072.94;2067125;28;2454;-67
2024/03/03 01:18:00;;;;;;;;;;;;;;;19.46;48.71;100072.94;2067137;28;2075;-67
2024/03/03 01:19:01;;;;;;;;;;;;;;;19.46;48.74;100067.19;2066532;28;1718;-66
2024/03/03 01:20:05;;;;;;;;;;;;;;;19.46;48.78;100072.94;2067988;28;1719;-67
2024/03/03 01:21:07;;;;;;;;;;;;;;;19.46;48.76;100072.94;2068271;28;2138;-67
2024/03/03 01:22:08;;;;;;;;;;;;;;;19.45;48.75;100068.59;2067643;28;1637;-67
2024/03/03 01:23:11;;;;;;;;;;;;;;;19.44;48.76;100076.44;2067619;28;1738;-66
2024/03/03 01:24:12;;;;;;;;;;;;;;;19.45;48.73;100083.69;2067642;28;1660;-67
2024/03/03 01:25:14;;;;;;;;;;;;;;;19.43;48.82;100075.00;2064991;28;2056;-67
2024/03/03 01:26:15;;;;;;;;;;;;;;;19.44;48.73;100082.19;2066246;28;2534;-67
2024/03/03 01:27:16;;;;;;;;;;;;;;;19.44;48.76;100082.19;2066984;28;2569;-66
2024/03/03 01:28:18;;;;;;;;;;;;;;;19.45;48.71;100088.69;2069070;28;2004;-67
2024/03/03 01:29:19;;;;;;;;;;;;;;;19.44;48.76;100087.94;2068144;28;1703;-67
2024/03/03 01:30:21;;;;;;;;;;;;;;;19.44;48.75;100081.47;2067881;28;6321;-66
2024/03/03 01:31:23;;;;;;;;;;;;;;;19.43;48.71;100092.22;2065258;28;2467;-67
2024/03/03 01:32:24;;;;;;;;;;;;;;;19.43;48.79;100086.47;2067789;28;2617;-67
2024/03/03 01:33:25;;;;;;;;;;;;;;;19.43;48.70;100091.47;2067975;28;1661;-67
2024/03/03 01:34:27;;;;;;;;;;;;;;;19.43;48.68;100088.63;2067674;28;2139;-66
2024/03/03 01:35:28;;;;;;;;;;;;;;;19.41;48.82;100089.25;2067589;28;2443;-67
2024/03/03 01:36:30;;;;;;;;;;;;;;;19.42;48.79;100085.00;2069249;28;2530;-67
2024/03/03 01:37:31;;;;;;;;;;;;;;;19.42;48.76;100084.25;2075925;28;2573;-67
2024/03/03 01:38:32;;;;;;;;;;;;;;;19.42;48.73;100084.25;2075165;28;2549;-67
2024/03/03 01:39:36;;;;;;;;;;;;;;;19.41;48.77;100089.25;2067402;28;1811;-67
2024/03/03 01:40:37;;;;;;;;;;;;;;;19.42;48.73;100090.00;2068261;28;2514;-67
2024/03/03 01:41:44;;;;;;;;;;;;;;;19.40;48.77;100092.78;2067609;28;1688;-67
2024/03/03 01:42:45;;;;;;;;;;;;;;;19.41;48.80;100082.78;2067288;28;1976;-66
2024/03/03 01:43:46;;;;;;;;;;;;;;;19.41;48.76;100085.66;2069062;28;1661;-66
2024/03/03 01:44:48;;;;;;;;;;;;;;;19.40;48.74;100087.03;2068265;28;1746;-66
2024/03/03 01:45:49;;;;;;;;;;;;;;;19.40;48.78;100092.78;2067056;28;2102;-66
2024/03/03 01:46:50;;;;;;;;;;;;;;;19.40;48.83;100081.31;2068446;28;1998;-66
2024/03/03 01:47:52;;;;;;;;;;;;;;;19.40;48.75;100082.06;2066821;28;2015;-66
2024/03/03 01:48:54;;;;;;;;;;;;;;;19.40;48.79;100081.31;2074692;28;2525;-66
2024/03/03 01:49:56;;;;;;;;;;;;;;;19.40;48.78;100081.31;2077090;28;1831;-66
2024/03/03 01:50:57;;;;;;;;;;;;;;;19.39;48.83;100086.31;2075126;28;2007;-67
2024/03/03 01:52:00;;;;;;;;;;;;;;;19.39;48.75;100080.56;2065234;28;2111;-67
2024/03/03 01:53:03;;;;;;;;;;;;;;;19.40;48.77;100075.56;2066849;28;1627;-67
2024/03/03 01:54:05;;;;;;;;;;;;;;;19.40;48.80;100075.56;2069075;28;1614;-67
2024/03/03 01:55:07;;;;;;;;;;;;;;;19.39;48.74;100071.22;2074287;28;1699;-66
2024/03/03 01:56:09;;;;;;;;;;;;;;;19.39;48.76;100080.56;2070378;28;2178;-67
2024/03/03 01:57:13;;;;;;;;;;;;;;;19.39;48.65;100082.72;2067777;28;2502;-66
2024/03/03 01:58:15;;;;;;;;;;;;;;;19.37;48.52;100083.38;2068571;28;1725;-67
2024/03/03 01:59:17;;;;;;;;;;;;;;;19.37;48.79;100076.88;2067967;28;2102;-66
2024/03/03 02:00:18;;;;;;;;;;;;;;;19.37;48.67;100083.38;2066604;28;6095;-66
2024/03/03 02:01:24;;;;;;;;;;;;;;;19.39;48.74;100082.72;2066993;28;1692;-67
2024/03/03 02:02:27;;;;;;;;;;;;;;;19.38;48.87;100081.97;2065819;28;2100;-67
2024/03/03 02:03:29;;;;;;;;;;;;;;;19.38;48.76;100078.38;2066172;28;2535;-66
2024/03/03 02:04:30;;;;;;;;;;;;;;;19.38;48.77;100079.09;2068898;28;1651;-66
2024/03/03 02:05:34;;;;;;;;;;;;;;;19.37;48.73;100079.75;2068231;28;1870;-67
2024/03/03 02:06:37;;;;;;;;;;;;;;;19.37;48.81;100076.88;2068006;28;2582;-66
2024/03/03 02:07:38;;;;;;;;;;;;;;;19.37;48.74;100071.16;2067438;28;2554;-67
2024/03/03 02:08:40;;;;;;;;;;;;;;;19.35;48.75;100065.31;2067033;28;1613;-67
2024/03/03 02:09:43;;;;;;;;;;;;;;;19.36;48.85;100081.91;2067204;28;2126;-66
2024/03/03 02:10:45;;;;;;;;;;;;;;;19.36;48.74;100075.44;2067479;28;1624;-67
2024/03/03 02:11:46;;;;;;;;;;;;;;;19.35;48.78;100068.19;2064751;28;2467;-67
2024/03/03 02:12:48;;;;;;;;;;;;;;;19.35;48.78;100065.31;2067331;28;1720;-67
2024/03/03 02:13:49;;;;;;;;;;;;;;;19.35;48.71;100079.69;2068867;28;1964;-66
2024/03/03 02:14:51;;;;;;;;;;;;;;;19.34;48.71;100070.34;2069359;28;1628;-66
2024/03/03 02:15:52;;;;;;;;;;;;;;;19.35;48.75;100073.94;2066729;28;2099;-66
2024/03/03 02:16:54;;;;;;;;;;;;;;;19.35;48.82;100073.94;2067811;28;2038;-66
2024/03/03 02:17:55;;;;;;;;;;;;;;;19.32;48.69;100063.78;2067136;28;2495;-67
2024/03/03 02:18:57;;;;;;;;;;;;;;;19.34;48.71;100066.75;2066171;28;2542;-67
2024/03/03 02:19:59;;;;;;;;;;;;;;;19.34;48.85;100072.47;2066856;28;2561;-67
2024/03/03 02:21:00;;;;;;;;;;;;;;;19.34;48.83;100066.75;2067893;28;2201;-66
2024/03/03 02:22:02;;;;;;;;;;;;;;;19.33;48.84;100065.97;2068694;28;1749;-66
2024/03/03 02:23:03;;;;;;;;;;;;;;;19.34;48.80;100064.59;2066895;28;2314;-67
2024/03/03 02:24:04;;;;;;;;;;;;;;;19.34;48.84;100063.88;2067884;28;1661;-67
2024/03/03 02:25:08;;;;;;;;;;;;;;;19.32;48.74;100070.25;2067663;28;2070;-67
2024/03/03 02:26:09;;;;;;;;;;;;;;;19.34;48.81;100066.75;2066088;28;2514;-67
2024/03/03 02:27:11;;;;;;;;;;;;;;;19.34;48.70;100066.75;2067209;28;2494;-66
2024/03/03 02:28:13;;;;;;;;;;;;;;;19.33;48.71;100062.38;2066290;28;1641;-67
2024/03/03 02:29:15;;;;;;;;;;;;;;;19.32;48.70;100055.91;2064712;28;2051;-67
2024/03/03 02:30:17;;;;;;;;;;;;;;;19.31;48.79;100062.28;2064179;28;6284;-67
2024/03/03 02:31:18;;;;;;;;;;;;;;;19.32;48.82;100063.78;2064217;28;2529;-67
2024/03/03 02:32:19;;;;;;;;;;;;;;;19.31;48.79;100060.19;2068418;28;2474;-67
2024/03/03 02:33:21;;;;;;;;;;;;;;;19.30;48.84;100061.56;2069255;28;1665;-67
2024/03/03 02:34:24;;;;;;;;;;;;;;;19.31;48.82;100059.44;2069115;28;1814;-67
2024/03/03 02:35:26;;;;;;;;;;;;;;;19.31;48.71;100056.56;2069339;28;1813;-66
2024/03/03 02:36:27;;;;;;;;;;;;;;;19.31;48.83;100060.19;2068389;28;2586;-67
2024/03/03 02:37:28;;;;;;;;;;;;;;;19.30;48.82;100055.81;2069770;28;2471;-66
2024/03/03 02:38:30;;;;;;;;;;;;;;;19.31;48.73;100051.56;2068930;28;1783;-67
2024/03/03 02:39:34;;;;;;;;;;;;;;;19.30;48.79;100061.56;2068560;28;2008;-66
2024/03/03 02:40:35;;;;;;;;;;;;;;;19.30;48.85;100057.97;2069073;28;2036;-66
2024/03/03 02:41:36;;;;;;;;;;;;;;;19.31;48.78;100059.44;2065998;28;2495;-67
2024/03/03 02:42:38;;;;;;;;;;;;;;;19.30;48.71;100049.34;2069388;28;2578;-67
2024/03/03 02:43:39;;;;;;;;;;;;;;;19.30;48.82;100052.94;2069921;28;1642;-67
2024/03/03 02:44:41;;;;;;;;;;;;;;;19.30;48.82;100057.97;2068304;28;2577;-67
2024/03/03 02:45:42;;;;;;;;;;;;;;;19.30;48.84;100055.09;2066898;28;2566;-67
2024/03/03 02:46:44;;;;;;;;;;;;;;;19.29;48.75;100059.34;2069337;28;2309;-66
2024/03/03 02:47:47;;;;;;;;;;;;;;;19.27;48.75;100056.44;2068363;28;2510;-67
2024/03/03 02:48:49;;;;;;;;;;;;;;;19.28;48.88;100055.75;2068662;28;1702;-66
2024/03/03 02:49:50;;;;;;;;;;;;;;;19.28;48.79;100052.88;2069268;28;2194;-67
2024/03/03 02:50:52;;;;;;;;;;;;;;;19.29;48.81;100059.34;2068839;28;1710;-67
2024/03/03 02:51:54;;;;;;;;;;;;;;;19.29;48.94;100053.59;2067673;28;2134;-66
2024/03/03 02:52:56;;;;;;;;;;;;;;;19.28;48.82;100052.16;2069602;28;2696;-67
2024/03/03 02:53:57;;;;;;;;;;;;;;;19.28;48.82;100055.00;2068158;28;2197;-67
2024/03/03 02:54:58;;;;;;;;;;;;;;;19.28;48.75;100043.53;2068642;28;1812;-67
2024/03/03 02:56:00;;;;;;;;;;;;;;;19.28;48.80;100041.41;2069036;28;1761;-67
2024/03/03 02:57:01;;;;;;;;;;;;;;;19.27;48.90;100050.69;2065915;28;2424;-66
2024/03/03 02:58:03;;;;;;;;;;;;;;;19.28;48.74;100046.41;2068423;28;2585;-66
2024/03/03 02:59:04;;;;;;;;;;;;;;;19.28;48.84;100043.53;2068536;28;2119;-67
2024/03/03 03:00:06;;;;;;;;;;;;;;;19.27;48.68;100048.53;2067203;28;6257;-65
2024/03/03 03:01:07;;;;;;;;;;;;;;;19.27;48.82;100050.69;2069307;28;2519;-65
2024/03/03 03:02:09;;;;;;;;;;;;;;;19.27;48.80;100050.69;2069343;28;2605;-66
2024/03/03 03:03:10;;;;;;;;;;;;;;;19.27;48.80;100044.94;2068767;28;1928;-65
2024/03/03 03:04:11;;;;;;;;;;;;;;;19.27;48.72;100050.69;2067692;28;2040;-67
2024/03/03 03:05:13;;;;;;;;;;;;;;;19.27;48.82;100050.69;2069004;28;1768;-66
2024/03/03 03:06:14;;;;;;;;;;;;;;;19.26;48.81;100052.78;2068375;28;1940;-66
2024/03/03 03:07:16;;;;;;;;;;;;;;;19.25;48.72;100049.19;2068263;28;2577;-68
2024/03/03 03:08:17;;;;;;;;;;;;;;;19.24;48.83;100047.72;2069436;28;2743;-66
2024/03/03 03:09:19;;;;;;;;;;;;;;;19.25;48.77;100052.06;2067764;28;2103;-66
2024/03/03 03:10:21;;;;;;;;;;;;;;;19.25;48.81;100054.94;2067795;28;2487;-66
2024/03/03 03:11:24;;;;;;;;;;;;;;;19.26;48.63;100047.06;2067292;28;2396;-67
2024/03/03 03:12:25;;;;;;;;;;;;;;;19.25;48.77;100049.19;2068598;28;2582;-67
2024/03/03 03:13:27;;;;;;;;;;;;;;;19.24;48.78;100053.47;2068722;28;1795;-66
2024/03/03 03:14:28;;;;;;;;;;;;;;;19.25;48.72;100043.44;2069114;28;1753;-67
2024/03/03 03:15:35;;;;;;;;;;;;;;;19.24;48.73;100042.00;2066509;28;2067;-66
2024/03/03 03:16:40;;;;;;;;;;;;;;;19.23;48.67;100051.97;2067858;28;1746;-66
2024/03/03 03:17:42;;;;;;;;;;;;;;;19.22;48.74;100039.03;2067086;28;2124;-67
2024/03/03 03:18:43;;;;;;;;;;;;;;;19.23;48.85;100039.78;2068094;28;2367;-66
2024/03/03 03:19:45;;;;;;;;;;;;;;;19.23;48.77;100046.25;2067540;28;2479;-67
2024/03/03 03:20:47;;;;;;;;;;;;;;;19.23;48.75;100051.97;2067686;28;2482;-66
2024/03/03 03:21:48;;;;;;;;;;;;;;;19.22;48.76;100039.03;2069311;28;2067;-67
2024/03/03 03:22:50;;;;;;;;;;;;;;;19.22;48.84;100041.91;2067781;28;1708;-66
2024/03/03 03:23:51;;;;;;;;;;;;;;;19.21;48.75;100043.28;2068703;28;1646;-67
2024/03/03 03:24:52;;;;;;;;;;;;;;;19.20;48.67;100041.09;2068499;28;1717;-66
2024/03/03 03:25:54;;;;;;;;;;;;;;;19.21;48.79;100037.56;2068442;28;2083;-66
2024/03/03 03:26:56;;;;;;;;;;;;;;;19.21;48.70;100039.69;2066031;28;2515;-67
2024/03/03 03:27:57;;;;;;;;;;;;;;;19.22;48.76;100038.31;2066688;28;2072;-67
2024/03/03 03:28:58;;;;;;;;;;;;;;;19.21;48.83;100043.28;2070035;28;2167;-66
2024/03/03 03:30:00;;;;;;;;;;;;;;;19.21;48.71;100046.16;2068066;28;1987;-67
2024/03/03 03:31:02;;;;;;;;;;;;;;;19.21;48.75;100043.28;2067302;28;6172;-67
2024/03/03 03:32:04;;;;;;;;;;;;;;;19.21;48.65;100049.03;2068480;28;2034;-66
2024/03/03 03:33:05;;;;;;;;;;;;;;;19.21;48.70;100042.56;2068022;28;1709;-67
2024/03/03 03:34:07;;;;;;;;;;;;;;;19.21;48.78;100046.16;2068456;28;2068;-67
2024/03/03 03:35:08;;;;;;;;;;;;;;;19.22;48.69;100044.78;2066836;28;2230;-66
2024/03/03 03:36:10;;;;;;;;;;;;;;;19.20;48.70;100041.84;2070393;28;2669;-66
2024/03/03 03:37:15;;;;;;;;;;;;;;;19.21;48.73;100043.28;2068733;28;2411;-67
2024/03/03 03:38:16;;;;;;;;;;;;;;;19.22;48.63;100044.78;2065222;28;2424;-66
2024/03/03 03:39:19;;;;;;;;;;;;;;;19.22;48.72;100039.03;2069603;28;1765;-67
2024/03/03 03:40:21;;;;;;;;;;;;;;;19.21;48.58;100037.56;2067742;28;2003;-67
2024/03/03 03:41:23;;;;;;;;;;;;;;;19.24;48.63;100042.00;2066889;28;2361;-67
2024/03/03 03:42:24;;;;;;;;;;;;;;;19.27;48.61;100039.19;2068141;28;2522;-66
2024/03/03 03:43:25;;;;;;;;;;;;;;;19.26;48.56;100038.44;2068994;28;2357;-66
2024/03/03 03:44:27;;;;;;;;;;;;;;;19.27;48.50;100037.06;2067375;28;2624;-67
2024/03/03 03:45:28;;;;;;;;;;;;;;;19.29;48.50;100042.13;2067390;28;1843;-66
2024/03/03 03:46:29;;;;;;;;;;;;;;;19.28;48.48;100041.41;2068458;28;1940;-66
2024/03/03 03:47:34;;;;;;;;;;;;;;;19.30;48.52;100035.72;2068095;28;2018;-66
2024/03/03 03:48:35;;;;;;;;;;;;;;;19.30;48.51;100035.00;2068160;28;1841;-66
2024/03/03 03:49:36;;;;;;;;;;;;;;;19.32;48.63;100032.22;2067803;28;1932;-67
2024/03/03 03:50:38;;;;;;;;;;;;;;;19.32;48.56;100035.09;2068110;28;1815;-66
2024/03/03 03:51:39;;;;;;;;;;;;;;;19.33;48.54;100028.66;2067400;28;2329;-67
2024/03/03 03:52:41;;;;;;;;;;;;;;;19.34;48.66;100038.75;2068390;28;2534;-67
2024/03/03 03:53:42;;;;;;;;;;;;;;;19.35;48.55;100039.50;2068846;28;2777;-67
2024/03/03 03:54:44;;;;;;;;;;;;;;;19.35;48.54;100039.50;2068101;28;1732;-68
2024/03/03 03:55:45;;;;;;;;;;;;;;;19.35;48.55;100034.47;2067190;28;2078;-66
2024/03/03 03:56:46;;;;;;;;;;;;;;;19.37;48.67;100036.69;2068967;28;2491;-67
2024/03/03 03:57:48;;;;;;;;;;;;;;;19.37;48.54;100036.69;2067788;28;2594;-68
2024/03/03 03:58:49;;;;;;;;;;;;;;;19.36;48.67;100041.72;2066667;28;1714;-67
2024/03/03 03:59:50;;;;;;;;;;;;;;;19.37;48.83;100036.69;2067563;28;2032;-67
2024/03/03 04:00:52;;;;;;;;;;;;;;;19.37;48.77;100030.97;2067539;28;6063;-66
2024/03/03 04:01:54;;;;;;;;;;;;;;;19.37;48.79;100030.97;2066936;28;1962;-67
2024/03/03 04:02:56;;;;;;;;;;;;;;;19.37;48.62;100031.69;2068007;28;2388;-67
2024/03/03 04:03:58;;;;;;;;;;;;;;;19.36;48.59;100029.50;2067493;28;2064;-66
2024/03/03 04:04:59;;;;;;;;;;;;;;;19.38;48.69;100038.91;2068426;28;2190;-67
2024/03/03 04:06:01;;;;;;;;;;;;;;;19.39;48.73;100034.63;2069122;28;1683;-67
2024/03/03 04:07:04;;;;;;;;;;;;;;;19.39;48.63;100034.63;2066971;28;2111;-66
2024/03/03 04:08:06;;;;;;;;;;;;;;;19.40;48.67;100035.38;2068377;28;2535;-66
2024/03/03 04:09:07;;;;;;;;;;;;;;;19.38;48.60;100038.91;2069500;28;1618;-67
2024/03/03 04:10:09;;;;;;;;;;;;;;;19.40;48.79;100029.63;2070018;28;1785;-66
2024/03/03 04:11:10;;;;;;;;;;;;;;;19.40;48.71;100033.25;2066337;28;2268;-66
2024/03/03 04:12:11;;;;;;;;;;;;;;;19.40;48.81;100035.38;2068147;28;2089;-67
2024/03/03 04:13:13;;;;;;;;;;;;;;;19.40;48.77;100039.00;2068974;28;2542;-67
2024/03/03 04:14:14;;;;;;;;;;;;;;;19.39;48.67;100028.91;2068907;28;1684;-67
2024/03/03 04:15:16;;;;;;;;;;;;;;;19.40;48.85;100029.63;2066984;28;2075;-67
2024/03/03 04:16:20;;;;;;;;;;;;;;;19.41;48.86;100026.09;2068342;28;1773;-67
2024/03/03 04:17:22;;;;;;;;;;;;;;;19.41;48.79;100031.13;2066770;28;2039;-67
2024/03/03 04:18:23;;;;;;;;;;;;;;;19.42;48.73;100032.56;2067665;28;2582;-66
2024/03/03 04:19:27;;;;;;;;;;;;;;;19.43;48.66;100025.44;2068992;28;2072;-67
2024/03/03 04:20:29;;;;;;;;;;;;;;;19.44;48.87;100029.78;2069101;28;1694;-66
2024/03/03 04:21:30;;;;;;;;;;;;;;;19.44;48.78;100030.50;2069947;28;2208;-66
2024/03/03 04:22:32;;;;;;;;;;;;;;;19.44;48.84;100029.78;2063067;28;2081;-66
2024/03/03 04:23:33;;;;;;;;;;;;;;;19.45;48.74;100031.28;2068229;28;2072;-67
2024/03/03 04:24:34;;;;;;;;;;;;;;;19.44;48.85;100029.78;2069366;28;1791;-66
2024/03/03 04:25:36;;;;;;;;;;;;;;;19.45;48.77;100022.66;2067380;28;2545;-66
2024/03/03 04:26:37;;;;;;;;;;;;;;;19.46;49.20;100032.72;2067912;28;2525;-66
2024/03/03 04:27:40;;;;;;;;;;;;;;;19.45;48.92;100025.53;2068447;28;2543;-67
2024/03/03 04:28:41;;;;;;;;;;;;;;;19.45;48.89;100029.13;2068894;28;1993;-67
2024/03/03 04:29:47;;;;;;;;;;;;;;;19.46;48.90;100027.00;2067325;28;2037;-67
2024/03/03 04:30:48;;;;;;;;;;;;;;;19.46;48.71;100027.72;2067577;28;6082;-67
2024/03/03 04:31:50;;;;;;;;;;;;;;;19.46;48.91;100027.00;2068128;28;1696;-66
2024/03/03 04:32:51;;;;;;;;;;;;;;;19.46;48.76;100029.84;2068960;28;1684;-66
2024/03/03 04:33:53;;;;;;;;;;;;;;;19.45;48.78;100025.53;2067598;28;1744;-66
2024/03/03 04:34:54;;;;;;;;;;;;;;;19.46;48.84;100033.47;2067276;28;2451;-66
2024/03/03 04:35:56;;;;;;;;;;;;;;;19.46;48.70;100024.13;2067988;28;2692;-66
2024/03/03 04:36:57;;;;;;;;;;;;;;;19.45;48.78;100032.00;2069264;28;2908;-67
2024/03/03 04:37:58;;;;;;;;;;;;;;;19.46;48.77;100024.13;2069186;28;2151;-67
2024/03/03 04:39:00;;;;;;;;;;;;;;;19.45;48.85;100032.00;2068100;28;1672;-66
2024/03/03 04:40:02;;;;;;;;;;;;;;;19.45;48.94;100026.25;2067434;28;2117;-66
2024/03/03 04:41:10;;;;;;;;;;;;;;;19.45;48.94;100032.00;2065642;28;2468;-67
2024/03/03 04:42:12;;;;;;;;;;;;;;;19.46;48.99;100029.84;2068923;28;2522;-66
2024/03/03 04:43:13;;;;;;;;;;;;;;;19.45;48.96;100031.28;2068594;28;1765;-67
2024/03/03 04:44:15;;;;;;;;;;;;;;;19.44;48.83;100030.50;2067203;28;1979;-66
2024/03/03 04:45:16;;;;;;;;;;;;;;;19.46;48.97;100032.72;2067274;28;2095;-66
2024/03/03 04:46:17;;;;;;;;;;;;;;;19.45;48.93;100031.28;2066054;28;2559;-67
2024/03/03 04:47:19;;;;;;;;;;;;;;;19.45;48.90;100026.25;2066610;28;2002;-66
2024/03/03 04:48:22;;;;;;;;;;;;;;;19.46;48.97;100021.25;2067535;28;1987;-66
2024/03/03 04:49:24;;;;;;;;;;;;;;;19.46;48.99;100032.72;2067360;28;2534;-66
2024/03/03 04:50:25;;;;;;;;;;;;;;;19.47;48.90;100028.47;2067618;28;2467;-67
2024/03/03 04:51:26;;;;;;;;;;;;;;;19.47;48.91;100028.47;2067510;28;2092;-67
2024/03/03 04:52:28;;;;;;;;;;;;;;;19.48;48.89;100035.69;2067946;28;2629;-66
2024/03/03 04:53:29;;;;;;;;;;;;;;;19.47;48.99;100022.72;2069328;28;2483;-67
2024/03/03 04:54:31;;;;;;;;;;;;;;;19.48;48.96;100024.19;2068142;28;1689;-67
2024/03/03 04:55:32;;;;;;;;;;;;;;;19.49;48.89;100028.53;2068796;28;2171;-66
2024/03/03 04:56:33;;;;;;;;;;;;;;;19.50;48.89;100021.41;2067347;28;2471;-66
2024/03/03 04:57:35;;;;;;;;;;;;;;;19.50;48.91;100024.28;2067275;28;2605;-67
2024/03/03 04:58:36;;;;;;;;;;;;;;;19.49;48.90;100025.66;2067697;28;1824;-66
2024/03/03 04:59:38;;;;;;;;;;;;;;;19.50;48.96;100027.16;2068900;28;2187;-66
2024/03/03 05:00:39;;;;;;;;;;;;;;;19.49;48.96;100025.66;2067338;28;6241;-67
2024/03/03 05:01:42;;;;;;;;;;;;;;;19.50;48.95;100015.66;2066401;28;2502;-66
2024/03/03 05:02:43;;;;;;;;;;;;;;;19.51;48.87;100019.25;2069397;28;2578;-67
2024/03/03 05:03:45;;;;;;;;;;;;;;;19.51;48.95;100027.88;2068900;28;1637;-67
2024/03/03 05:04:46;;;;;;;;;;;;;;;19.50;48.76;100024.28;2067183;28;2119;-66
2024/03/03 05:05:48;;;;;;;;;;;;;;;19.50;48.86;100021.41;2067970;28;2022;-67
2024/03/03 05:06:49;;;;;;;;;;;;;;;19.51;49.15;100033.63;2066870;28;2120;-67
2024/03/03 05:07:51;;;;;;;;;;;;;;;19.50;49.02;100027.16;2068591;28;2546;-66
2024/03/03 05:08:52;;;;;;;;;;;;;;;19.50;49.00;100024.28;2069226;28;1910;-67
2024/03/03 05:09:53;;;;;;;;;;;;;;;19.50;48.97;100030.00;2067966;28;1708;-67
2024/03/03 05:10:55;;;;;;;;;;;;;;;19.50;48.97;100027.16;2067741;28;2047;-67
2024/03/03 05:11:57;;;;;;;;;;;;;;;19.50;48.77;100032.88;2067090;28;2455;-67
2024/03/03 05:12:58;;;;;;;;;;;;;;;19.50;48.92;100030.00;2067302;28;2586;-67
2024/03/03 05:13:59;;;;;;;;;;;;;;;19.49;48.80;100031.41;2066726;28;2012;-66
2024/03/03 05:15:01;;;;;;;;;;;;;;;19.49;48.94;100025.66;2067029;28;2125;-66
2024/03/03 05:16:02;;;;;;;;;;;;;;;19.50;48.93;100029.28;2068083;28;2469;-66
2024/03/03 05:17:04;;;;;;;;;;;;;;;19.49;48.88;100025.66;2067608;28;2008;-67
2024/03/03 05:18:05;;;;;;;;;;;;;;;19.49;48.87;100037.13;2068900;28;2545;-67
2024/03/03 05:19:08;;;;;;;;;;;;;;;19.49;48.88;100031.41;2066487;28;2253;-67
2024/03/03 05:20:10;;;;;;;;;;;;;;;19.50;48.91;100027.16;2068473;28;2008;-67
2024/03/03 05:21:12;;;;;;;;;;;;;;;19.49;49.05;100031.41;2066374;28;2444;-67
2024/03/03 05:22:13;;;;;;;;;;;;;;;19.50;48.98;100040.78;2066448;28;2518;-67